sensor_id;sensor_type;location;lat;lon;timestamp;pressure;altitude;pressure_sealevel;temperature;humidity
19884;BME280;10104;50.732;10.174;2023-04-08T00:01:30;98222.22;;;5.35;63.76
19884;BME280;10104;50.732;10.174;2023-04-08T00:03:52;98223.53;;;5.48;62.72
19884;BME280;10104;50.732;10.174;2023-04-08T00:06:13;98223.53;;;5.66;62.15
19884;BME280;10104;50.732;10.174;2023-04-08T00:08:36;98226.31;;;5.64;61.68
19884;BME280;10104;50.732;10.174;2023-04-08T00:10:58;98219.94;;;5.67;60.75
19884;BME280;10104;50.732;10.174;2023-04-08T00:13:19;98216.72;;;5.73;60.54
19884;BME280;10104;50.732;10.174;2023-04-08T00:15:41;98215.28;;;5.79;60.67
19884;BME280;10104;50.732;10.174;2023-04-08T00:18:03;98224.97;;;5.78;60.15
19884;BME280;10104;50.732;10.174;2023-04-08T00:20:24;98223.16;;;5.61;62.96
19884;BME280;10104;50.732;10.174;2023-04-08T00:22:46;98222.38;;;5.51;64.05
19884;BME280;10104;50.732;10.174;2023-04-08T00:25:07;98215.44;;;5.32;65.86
19884;BME280;10104;50.732;10.174;2023-04-08T00:27:29;98228.69;;;5.58;63.63
19884;BME280;10104;50.732;10.174;2023-04-08T00:29:51;98222.03;;;5.63;62.57
19884;BME280;10104;50.732;10.174;2023-04-08T00:32:12;98222.72;;;5.65;62.63
19884;BME280;10104;50.732;10.174;2023-04-08T00:34:34;98221.78;;;5.75;62.16
19884;BME280;10104;50.732;10.174;2023-04-08T00:36:55;98225.94;;;5.59;65.76
19884;BME280;10104;50.732;10.174;2023-04-08T00:39:17;98222.97;;;5.45;65.71
19884;BME280;10104;50.732;10.174;2023-04-08T00:41:38;98222.03;;;5.63;63.70
19884;BME280;10104;50.732;10.174;2023-04-08T00:44:00;98221.06;;;5.64;63.08
19884;BME280;10104;50.732;10.174;2023-04-08T00:46:22;98220.78;;;5.67;62.50
19884;BME280;10104;50.732;10.174;2023-04-08T00:48:44;98220.97;;;5.74;61.87
19884;BME280;10104;50.732;10.174;2023-04-08T00:51:05;98224.38;;;5.84;62.20
19884;BME280;10104;50.732;10.174;2023-04-08T00:53:29;98224.91;;;5.88;61.70
19884;BME280;10104;50.732;10.174;2023-04-08T00:55:51;98225.13;;;5.77;62.93
19884;BME280;10104;50.732;10.174;2023-04-08T00:58:13;98230.84;;;5.90;62.62
19884;BME280;10104;50.732;10.174;2023-04-08T01:00:35;98226.78;;;5.78;64.00
19884;BME280;10104;50.732;10.174;2023-04-08T01:03:15;98230.94;;;5.53;67.89
19884;BME280;10104;50.732;10.174;2023-04-08T01:05:59;98229.75;;;5.65;65.72
19884;BME280;10104;50.732;10.174;2023-04-08T01:08:26;98230.38;;;5.77;64.27
19884;BME280;10104;50.732;10.174;2023-04-08T01:10:53;98223.47;;;5.76;64.39
19884;BME280;10104;50.732;10.174;2023-04-08T01:13:18;98230.59;;;5.83;63.79
19884;BME280;10104;50.732;10.174;2023-04-08T01:15:43;98234.94;;;5.75;66.94
19884;BME280;10104;50.732;10.174;2023-04-08T01:18:07;98224.19;;;5.68;66.70
19884;BME280;10104;50.732;10.174;2023-04-08T01:20:29;98225.38;;;5.56;67.61
19884;BME280;10104;50.732;10.174;2023-04-08T01:25:30;98224.06;;;5.69;65.93
19884;BME280;10104;50.732;10.174;2023-04-08T01:27:53;98227.59;;;5.78;64.92
19884;BME280;10104;50.732;10.174;2023-04-08T01:30:19;98226.22;;;5.74;66.43
19884;BME280;10104;50.732;10.174;2023-04-08T01:32:42;98226.16;;;5.84;65.46
19884;BME280;10104;50.732;10.174;2023-04-08T01:35:05;98226.44;;;5.90;64.95
19884;BME280;10104;50.732;10.174;2023-04-08T01:37:29;98227.00;;;5.84;66.17
19884;BME280;10104;50.732;10.174;2023-04-08T01:39:51;98228.69;;;5.58;68.87
19884;BME280;10104;50.732;10.174;2023-04-08T01:42:13;98228.25;;;5.62;68.76
19884;BME280;10104;50.732;10.174;2023-04-08T01:44:36;98235.75;;;5.75;67.30
19884;BME280;10104;50.732;10.174;2023-04-08T01:47:00;98226.78;;;5.78;66.81
19884;BME280;10104;50.732;10.174;2023-04-08T01:49:23;98223.16;;;5.79;67.06
19884;BME280;10104;50.732;10.174;2023-04-08T01:51:47;98234.00;;;5.93;65.82
19884;BME280;10104;50.732;10.174;2023-04-08T01:54:09;98233.03;;;5.94;65.78
19884;BME280;10104;50.732;10.174;2023-04-08T01:56:35;98229.94;;;5.99;64.72
19884;BME280;10104;50.732;10.174;2023-04-08T01:58:59;98225.06;;;6.04;64.83
19884;BME280;10104;50.732;10.174;2023-04-08T02:01:22;98225.59;;;6.07;64.65
19884;BME280;10104;50.732;10.174;2023-04-08T02:03:46;98221.84;;;6.10;64.37
19884;BME280;10104;50.732;10.174;2023-04-08T02:06:08;98220.19;;;6.09;64.22
19884;BME280;10104;50.732;10.174;2023-04-08T02:08:32;98218.31;;;6.01;66.37
19884;BME280;10104;50.732;10.174;2023-04-08T02:10:54;98221.63;;;6.03;66.49
19884;BME280;10104;50.732;10.174;2023-04-08T02:13:15;98226.50;;;5.98;68.02
19884;BME280;10104;50.732;10.174;2023-04-08T02:15:41;98222.00;;;6.08;66.18
19884;BME280;10104;50.732;10.174;2023-04-08T02:18:12;98233.41;;;6.17;65.65
19884;BME280;10104;50.732;10.174;2023-04-08T02:20:37;98233.41;;;6.17;67.45
19884;BME280;10104;50.732;10.174;2023-04-08T02:23:23;98240.69;;;6.05;67.96
19884;BME280;10104;50.732;10.174;2023-04-08T02:25:46;98235.81;;;6.11;67.35
19884;BME280;10104;50.732;10.174;2023-04-08T02:28:09;98237.06;;;6.06;69.47
19884;BME280;10104;50.732;10.174;2023-04-08T02:30:33;98238.22;;;6.04;69.43
19884;BME280;10104;50.732;10.174;2023-04-08T02:32:56;98246.75;;;5.88;72.09
19884;BME280;10104;50.732;10.174;2023-04-08T02:35:18;98244.00;;;5.90;72.48
19884;BME280;10104;50.732;10.174;2023-04-08T02:37:40;98237.06;;;6.06;69.50
19884;BME280;10104;50.732;10.174;2023-04-08T02:40:02;98244.38;;;5.95;74.01
19884;BME280;10104;50.732;10.174;2023-04-08T02:42:23;98232.88;;;5.96;72.42
19884;BME280;10104;50.732;10.174;2023-04-08T02:44:46;98235.97;;;6.09;70.74
19884;BME280;10104;50.732;10.174;2023-04-08T02:47:07;98232.19;;;6.12;69.64
19884;BME280;10104;50.732;10.174;2023-04-08T02:49:29;98229.28;;;6.15;69.59
19884;BME280;10104;50.732;10.174;2023-04-08T02:51:50;98231.16;;;6.22;68.90
19884;BME280;10104;50.732;10.174;2023-04-08T02:54:12;98237.00;;;6.16;70.41
19884;BME280;10104;50.732;10.174;2023-04-08T02:56:33;98234.97;;;6.28;68.95
19884;BME280;10104;50.732;10.174;2023-04-08T02:58:55;98236.31;;;6.32;68.82
19884;BME280;10104;50.732;10.174;2023-04-08T03:01:16;98233.66;;;6.32;68.79
19884;BME280;10104;50.732;10.174;2023-04-08T03:03:38;98239.06;;;6.30;69.27
19884;BME280;10104;50.732;10.174;2023-04-08T03:05:59;98231.16;;;6.22;71.39
19884;BME280;10104;50.732;10.174;2023-04-08T03:08:21;98227.94;;;6.11;73.48
19884;BME280;10104;50.732;10.174;2023-04-08T03:10:43;98232.63;;;6.25;71.06
19884;BME280;10104;50.732;10.174;2023-04-08T03:13:04;98227.59;;;6.31;70.60
19884;BME280;10104;50.732;10.174;2023-04-08T03:15:26;98228.41;;;6.32;70.65
19884;BME280;10104;50.732;10.174;2023-04-08T03:17:47;98230.22;;;6.31;71.23
19884;BME280;10104;50.732;10.174;2023-04-08T03:20:09;98237.81;;;6.34;71.66
19884;BME280;10104;50.732;10.174;2023-04-08T03:22:32;98236.84;;;6.18;74.22
19884;BME280;10104;50.732;10.174;2023-04-08T03:24:53;98238.13;;;6.14;74.53
19884;BME280;10104;50.732;10.174;2023-04-08T03:27:15;98236.47;;;6.13;75.73
19884;BME280;10104;50.732;10.174;2023-04-08T03:29:37;98244.13;;;6.24;73.77
19884;BME280;10104;50.732;10.174;2023-04-08T03:31:58;98237.88;;;6.25;74.14
19884;BME280;10104;50.732;10.174;2023-04-08T03:34:20;98239.47;;;6.18;75.38
19884;BME280;10104;50.732;10.174;2023-04-08T03:36:41;98245.84;;;6.33;73.13
19884;BME280;10104;50.732;10.174;2023-04-08T03:39:03;98246.44;;;6.44;72.23
19884;BME280;10104;50.732;10.174;2023-04-08T03:41:24;98244.84;;;6.52;71.30
19884;BME280;10104;50.732;10.174;2023-04-08T03:43:46;98244.38;;;6.56;70.69
19884;BME280;10104;50.732;10.174;2023-04-08T03:46:07;98252.25;;;6.56;71.29
19884;BME280;10104;50.732;10.174;2023-04-08T03:48:29;98253.31;;;6.63;70.59
19884;BME280;10104;50.732;10.174;2023-04-08T03:50:50;98249.69;;;6.64;70.36
19884;BME280;10104;50.732;10.174;2023-04-08T03:53:12;98249.75;;;6.72;70.25
19884;BME280;10104;50.732;10.174;2023-04-08T03:55:33;98243.34;;;6.75;69.60
19884;BME280;10104;50.732;10.174;2023-04-08T03:57:55;98250.63;;;6.81;69.34
19884;BME280;10104;50.732;10.174;2023-04-08T04:00:17;98254.13;;;6.89;68.92
19884;BME280;10104;50.732;10.174;2023-04-08T04:02:38;98254.78;;;6.91;69.02
19884;BME280;10104;50.732;10.174;2023-04-08T04:05:00;98259.91;;;6.93;68.83
19884;BME280;10104;50.732;10.174;2023-04-08T04:07:22;98268.78;;;6.92;68.37
19884;BME280;10104;50.732;10.174;2023-04-08T04:09:43;98264.88;;;6.96;68.70
19884;BME280;10104;50.732;10.174;2023-04-08T04:12:05;98270.44;;;6.93;68.67
19884;BME280;10104;50.732;10.174;2023-04-08T04:14:26;98273.25;;;7.00;68.39
19884;BME280;10104;50.732;10.174;2023-04-08T04:16:48;98272.44;;;6.99;68.82
19884;BME280;10104;50.732;10.174;2023-04-08T04:19:09;98267.91;;;7.09;68.36
19884;BME280;10104;50.732;10.174;2023-04-08T04:21:31;98276.56;;;7.02;69.29
19884;BME280;10104;50.732;10.174;2023-04-08T04:23:52;98278.84;;;6.97;70.36
19884;BME280;10104;50.732;10.174;2023-04-08T04:26:14;98280.03;;;7.02;69.54
19884;BME280;10104;50.732;10.174;2023-04-08T04:28:36;98285.31;;;7.10;70.03
19884;BME280;10104;50.732;10.174;2023-04-08T04:30:58;98288.13;;;7.09;69.12
19884;BME280;10104;50.732;10.174;2023-04-08T04:33:19;98288.91;;;7.01;70.65
19884;BME280;10104;50.732;10.174;2023-04-08T04:35:42;98289.75;;;7.10;69.57
19884;BME280;10104;50.732;10.174;2023-04-08T04:38:04;98291.94;;;7.14;69.31
19884;BME280;10104;50.732;10.174;2023-04-08T04:40:30;98289.47;;;7.13;69.25
19884;BME280;10104;50.732;10.174;2023-04-08T04:42:52;98290.28;;;7.13;69.73
19884;BME280;10104;50.732;10.174;2023-04-08T04:45:13;98287.66;;;7.13;70.03
19884;BME280;10104;50.732;10.174;2023-04-08T04:47:35;98293.28;;;7.18;69.77
19884;BME280;10104;50.732;10.174;2023-04-08T04:49:57;98285.84;;;7.14;71.54
19884;BME280;10104;50.732;10.174;2023-04-08T04:52:18;98292.97;;;7.21;70.63
19884;BME280;10104;50.732;10.174;2023-04-08T04:54:40;98289.81;;;7.18;71.58
19884;BME280;10104;50.732;10.174;2023-04-08T04:57:02;98294.59;;;7.22;71.60
19884;BME280;10104;50.732;10.174;2023-04-08T04:59:23;98299.44;;;7.27;71.51
19884;BME280;10104;50.732;10.174;2023-04-08T05:01:45;98300.88;;;7.21;72.25
19884;BME280;10104;50.732;10.174;2023-04-08T05:04:06;98306.28;;;7.20;72.99
19884;BME280;10104;50.732;10.174;2023-04-08T05:06:28;98303.97;;;7.17;74.10
19884;BME280;10104;50.732;10.174;2023-04-08T05:08:49;98305.38;;;7.03;76.14
19884;BME280;10104;50.732;10.174;2023-04-08T05:11:12;98303.97;;;7.17;74.26
19884;BME280;10104;50.732;10.174;2023-04-08T05:13:33;98303.53;;;7.29;73.36
19884;BME280;10104;50.732;10.174;2023-04-08T05:15:55;98308.50;;;7.32;72.72
19884;BME280;10104;50.732;10.174;2023-04-08T05:18:16;98307.19;;;7.37;72.52
19884;BME280;10104;50.732;10.174;2023-04-08T05:20:38;98307.41;;;7.43;72.45
19884;BME280;10104;50.732;10.174;2023-04-08T05:23:00;98308.56;;;7.49;72.04
19884;BME280;10104;50.732;10.174;2023-04-08T05:25:21;98308.41;;;7.50;72.39
19884;BME280;10104;50.732;10.174;2023-04-08T05:27:43;98317.66;;;7.54;72.24
19884;BME280;10104;50.732;10.174;2023-04-08T05:30:05;98319.16;;;7.57;72.51
19884;BME280;10104;50.732;10.174;2023-04-08T05:32:26;98310.56;;;7.55;73.94
19884;BME280;10104;50.732;10.174;2023-04-08T05:34:49;98313.53;;;7.60;73.62
19884;BME280;10104;50.732;10.174;2023-04-08T05:37:11;98312.91;;;7.58;74.18
19884;BME280;10104;50.732;10.174;2023-04-08T05:39:32;98304.81;;;7.59;74.59
19884;BME280;10104;50.732;10.174;2023-04-08T05:41:54;98311.63;;;7.70;73.76
19884;BME280;10104;50.732;10.174;2023-04-08T05:44:15;98307.88;;;7.81;73.71
19884;BME280;10104;50.732;10.174;2023-04-08T05:46:37;98312.19;;;7.98;72.83
19884;BME280;10104;50.732;10.174;2023-04-08T05:48:59;98308.94;;;8.12;72.02
19884;BME280;10104;50.732;10.174;2023-04-08T05:51:20;98313.06;;;8.23;71.68
19884;BME280;10104;50.732;10.174;2023-04-08T05:53:44;98317.91;;;8.35;71.22
19884;BME280;10104;50.732;10.174;2023-04-08T05:56:06;98317.56;;;8.30;71.64
19884;BME280;10104;50.732;10.174;2023-04-08T05:58:28;98317.41;;;8.40;71.60
19884;BME280;10104;50.732;10.174;2023-04-08T06:00:49;98319.56;;;8.36;72.36
19884;BME280;10104;50.732;10.174;2023-04-08T06:03:11;98323.50;;;8.48;71.20
19884;BME280;10104;50.732;10.174;2023-04-08T06:05:33;98326.81;;;8.50;71.46
19884;BME280;10104;50.732;10.174;2023-04-08T06:07:54;98323.69;;;8.47;72.53
19884;BME280;10104;50.732;10.174;2023-04-08T06:10:16;98326.97;;;8.33;73.90
19884;BME280;10104;50.732;10.174;2023-04-08T06:12:38;98332.88;;;8.27;74.06
19884;BME280;10104;50.732;10.174;2023-04-08T06:14:59;98337.78;;;8.13;74.84
19884;BME280;10104;50.732;10.174;2023-04-08T06:17:21;98335.81;;;8.24;74.81
19884;BME280;10104;50.732;10.174;2023-04-08T06:19:42;98341.81;;;8.42;73.45
19884;BME280;10104;50.732;10.174;2023-04-08T06:22:04;98346.13;;;8.59;72.53
19884;BME280;10104;50.732;10.174;2023-04-08T06:24:26;98345.13;;;8.84;71.28
19884;BME280;10104;50.732;10.174;2023-04-08T06:26:48;98340.31;;;9.04;70.28
19884;BME280;10104;50.732;10.174;2023-04-08T06:29:09;98346.91;;;9.24;69.28
19884;BME280;10104;50.732;10.174;2023-04-08T06:31:31;98350.53;;;9.15;69.93
19884;BME280;10104;50.732;10.174;2023-04-08T06:33:52;98343.81;;;9.05;70.59
19884;BME280;10104;50.732;10.174;2023-04-08T06:36:14;98350.72;;;8.98;71.24
19884;BME280;10104;50.732;10.174;2023-04-08T06:38:35;98354.03;;;8.91;71.98
19884;BME280;10104;50.732;10.174;2023-04-08T06:41:07;98359.81;;;9.03;71.34
19884;BME280;10104;50.732;10.174;2023-04-08T06:43:29;98359.81;;;8.95;72.00
19884;BME280;10104;50.732;10.174;2023-04-08T06:45:51;98354.38;;;9.05;72.53
19884;BME280;10104;50.732;10.174;2023-04-08T06:48:13;98367.88;;;9.10;72.65
19884;BME280;10104;50.732;10.174;2023-04-08T06:50:35;98371.31;;;9.34;70.63
19884;BME280;10104;50.732;10.174;2023-04-08T06:52:56;98372.94;;;9.52;70.18
19884;BME280;10104;50.732;10.174;2023-04-08T06:55:18;98366.84;;;9.43;69.26
19884;BME280;10104;50.732;10.174;2023-04-08T06:57:39;98364.69;;;9.47;69.41
19884;BME280;10104;50.732;10.174;2023-04-08T07:00:01;98358.63;;;9.30;70.82
19884;BME280;10104;50.732;10.174;2023-04-08T07:02:22;98365.88;;;9.36;69.49
19884;BME280;10104;50.732;10.174;2023-04-08T07:04:44;98365.09;;;9.19;70.11
19884;BME280;10104;50.732;10.174;2023-04-08T07:07:07;98370.22;;;8.97;70.81
19884;BME280;10104;50.732;10.174;2023-04-08T07:09:28;98374.50;;;8.98;70.23
19884;BME280;10104;50.732;10.174;2023-04-08T07:11:50;98377.81;;;9.00;69.73
19884;BME280;10104;50.732;10.174;2023-04-08T07:14:11;98382.91;;;9.01;69.88
19884;BME280;10104;50.732;10.174;2023-04-08T07:16:33;98389.53;;;8.97;69.42
19884;BME280;10104;50.732;10.174;2023-04-08T07:18:54;98385.88;;;8.90;69.48
19884;BME280;10104;50.732;10.174;2023-04-08T07:21:16;98386.56;;;9.00;69.55
19884;BME280;10104;50.732;10.174;2023-04-08T07:23:38;98394.00;;;9.05;69.67
19884;BME280;10104;50.732;10.174;2023-04-08T07:26:03;98389.03;;;9.10;69.83
19884;BME280;10104;50.732;10.174;2023-04-08T07:28:27;98390.66;;;9.27;68.80
19884;BME280;10104;50.732;10.174;2023-04-08T07:30:49;98392.94;;;9.54;68.30
19884;BME280;10104;50.732;10.174;2023-04-08T07:33:11;98396.50;;;9.78;67.33
19884;BME280;10104;50.732;10.174;2023-04-08T07:35:33;98394.94;;;9.99;67.31
19884;BME280;10104;50.732;10.174;2023-04-08T07:37:54;98400.47;;;10.12;64.85
19884;BME280;10104;50.732;10.174;2023-04-08T07:40:17;98400.53;;;10.04;64.67
19884;BME280;10104;50.732;10.174;2023-04-08T07:42:39;98399.84;;;10.10;65.45
19884;BME280;10104;50.732;10.174;2023-04-08T07:45:01;98398.50;;;10.06;64.77
19884;BME280;10104;50.732;10.174;2023-04-08T07:47:22;98398.56;;;9.98;63.89
19884;BME280;10104;50.732;10.174;2023-04-08T07:49:47;98403.41;;;9.87;63.31
19884;BME280;10104;50.732;10.174;2023-04-08T07:52:08;98405.84;;;9.88;64.07
19884;BME280;10104;50.732;10.174;2023-04-08T07:54:30;98412.03;;;9.81;63.65
19884;BME280;10104;50.732;10.174;2023-04-08T07:56:54;98412.19;;;9.87;64.00
19884;BME280;10104;50.732;10.174;2023-04-08T07:59:16;98413.41;;;9.52;66.37
19884;BME280;10104;50.732;10.174;2023-04-08T08:01:37;98413.25;;;9.54;65.09
19884;BME280;10104;50.732;10.174;2023-04-08T08:03:59;98410.81;;;9.44;66.30
19884;BME280;10104;50.732;10.174;2023-04-08T08:06:21;98415.75;;;9.39;67.05
19884;BME280;10104;50.732;10.174;2023-04-08T08:08:42;98414.59;;;9.33;66.84
19884;BME280;10104;50.732;10.174;2023-04-08T08:11:04;98416.91;;;9.28;66.85
19884;BME280;10104;50.732;10.174;2023-04-08T08:13:25;98416.25;;;9.26;66.33
19884;BME280;10104;50.732;10.174;2023-04-08T08:15:51;98425.31;;;9.32;67.70
19884;BME280;10104;50.732;10.174;2023-04-08T08:18:14;98434.06;;;9.32;68.12
19884;BME280;10104;50.732;10.174;2023-04-08T08:20:36;98422.38;;;9.35;66.38
19884;BME280;10104;50.732;10.174;2023-04-08T08:22:57;98429.94;;;9.54;66.07
19884;BME280;10104;50.732;10.174;2023-04-08T08:25:19;98428.59;;;9.66;66.31
19884;BME280;10104;50.732;10.174;2023-04-08T08:27:40;98435.50;;;9.75;65.91
19884;BME280;10104;50.732;10.174;2023-04-08T08:30:02;98437.59;;;9.88;66.17
19884;BME280;10104;50.732;10.174;2023-04-08T08:32:24;98436.44;;;9.99;65.76
19884;BME280;10104;50.732;10.174;2023-04-08T08:34:46;98442.19;;;10.10;65.12
19884;BME280;10104;50.732;10.174;2023-04-08T08:37:07;98437.66;;;10.27;64.11
19884;BME280;10104;50.732;10.174;2023-04-08T08:39:30;98436.78;;;10.43;64.93
19884;BME280;10104;50.732;10.174;2023-04-08T08:41:52;98440.69;;;10.55;63.67
19884;BME280;10104;50.732;10.174;2023-04-08T08:44:13;98437.13;;;10.63;63.91
19884;BME280;10104;50.732;10.174;2023-04-08T08:46:35;98441.69;;;11.00;62.16
19884;BME280;10104;50.732;10.174;2023-04-08T08:48:56;98434.25;;;11.18;61.05
19884;BME280;10104;50.732;10.174;2023-04-08T08:51:18;98448.44;;;11.25;60.95
19884;BME280;10104;50.732;10.174;2023-04-08T08:53:40;98454.91;;;11.45;60.34
19884;BME280;10104;50.732;10.174;2023-04-08T08:56:08;98446.19;;;11.74;58.46
19884;BME280;10104;50.732;10.174;2023-04-08T08:58:32;98446.03;;;11.75;59.96
19884;BME280;10104;50.732;10.174;2023-04-08T09:00:55;98444.84;;;11.78;59.09
19884;BME280;10104;50.732;10.174;2023-04-08T09:03:21;98446.94;;;11.97;57.85
19884;BME280;10104;50.732;10.174;2023-04-08T09:05:53;98445.28;;;12.40;57.34
19884;BME280;10104;50.732;10.174;2023-04-08T09:10:43;98435.31;;;12.85;55.63
19884;BME280;10104;50.732;10.174;2023-04-08T09:13:04;98442.88;;;12.81;54.89
19884;BME280;10104;50.732;10.174;2023-04-08T09:15:26;98450.59;;;12.97;55.86
19884;BME280;10104;50.732;10.174;2023-04-08T09:17:47;98447.81;;;13.27;55.97
19884;BME280;10104;50.732;10.174;2023-04-08T09:20:11;98447.03;;;13.54;54.53
19884;BME280;10104;50.732;10.174;2023-04-08T09:22:33;98442.38;;;13.91;53.75
19884;BME280;10104;50.732;10.174;2023-04-08T09:24:54;98445.88;;;13.91;52.35
19884;BME280;10104;50.732;10.174;2023-04-08T09:27:32;98456.19;;;13.73;52.55
19884;BME280;10104;50.732;10.174;2023-04-08T09:30:12;98459.63;;;13.39;53.55
19884;BME280;10104;50.732;10.174;2023-04-08T09:33:11;98477.06;;;13.27;54.42
19884;BME280;10104;50.732;10.174;2023-04-08T09:35:33;98482.56;;;13.04;54.82
19884;BME280;10104;50.732;10.174;2023-04-08T09:37:54;98479.69;;;12.84;54.78
19884;BME280;10104;50.732;10.174;2023-04-08T09:40:16;98486.22;;;12.82;54.88
19884;BME280;10104;50.732;10.174;2023-04-08T09:42:44;98488.13;;;13.09;54.10
19884;BME280;10104;50.732;10.174;2023-04-08T09:45:09;98489.09;;;13.02;54.53
19884;BME280;10104;50.732;10.174;2023-04-08T09:47:58;98495.78;;;13.12;54.29
19884;BME280;10104;50.732;10.174;2023-04-08T09:50:20;98498.84;;;12.80;55.46
19884;BME280;10104;50.732;10.174;2023-04-08T09:52:46;98498.66;;;12.45;57.60
19884;BME280;10104;50.732;10.174;2023-04-08T09:55:12;98511.69;;;12.40;56.21
19884;BME280;10104;50.732;10.174;2023-04-08T09:58:00;98511.13;;;12.15;56.96
19884;BME280;10104;50.732;10.174;2023-04-08T10:00:28;98502.38;;;11.92;57.05
19884;BME280;10104;50.732;10.174;2023-04-08T10:03:12;98502.31;;;11.63;58.59
19884;BME280;10104;50.732;10.174;2023-04-08T10:05:40;98492.34;;;11.65;59.54
19884;BME280;10104;50.732;10.174;2023-04-08T10:08:02;98503.75;;;11.51;59.41
19884;BME280;10104;50.732;10.174;2023-04-08T10:10:24;98505.31;;;11.22;60.82
19884;BME280;10104;50.732;10.174;2023-04-08T10:12:48;98503.69;;;11.36;60.37
19884;BME280;10104;50.732;10.174;2023-04-08T10:17:42;98507.06;;;11.07;62.52
19884;BME280;10104;50.732;10.174;2023-04-08T10:20:04;98507.19;;;10.91;64.07
19884;BME280;10104;50.732;10.174;2023-04-08T10:22:46;98502.75;;;10.83;63.98
19884;BME280;10104;50.732;10.174;2023-04-08T10:27:40;98497.72;;;10.66;65.75
19884;BME280;10104;50.732;10.174;2023-04-08T10:32:48;98496.50;;;10.37;68.22
19884;BME280;10104;50.732;10.174;2023-04-08T10:35:10;98502.38;;;10.17;69.53
19884;BME280;10104;50.732;10.174;2023-04-08T10:37:31;98508.63;;;10.15;70.03
19884;BME280;10104;50.732;10.174;2023-04-08T10:39:53;98502.38;;;10.00;71.03
19884;BME280;10104;50.732;10.174;2023-04-08T10:42:14;98502.72;;;9.97;71.83
19884;BME280;10104;50.732;10.174;2023-04-08T10:44:36;98508.69;;;9.99;72.31
19884;BME280;10104;50.732;10.174;2023-04-08T10:46:57;98512.50;;;9.97;72.67
19884;BME280;10104;50.732;10.174;2023-04-08T10:49:19;98512.66;;;9.95;72.41
19884;BME280;10104;50.732;10.174;2023-04-08T10:51:42;98523.59;;;9.92;73.10
19884;BME280;10104;50.732;10.174;2023-04-08T10:54:08;98514.13;;;10.06;72.87
19884;BME280;10104;50.732;10.174;2023-04-08T10:56:29;98518.25;;;10.00;73.29
19884;BME280;10104;50.732;10.174;2023-04-08T10:58:53;98508.16;;;10.12;72.36
19884;BME280;10104;50.732;10.174;2023-04-08T11:01:18;98509.44;;;10.32;73.38
19884;BME280;10104;50.732;10.174;2023-04-08T11:03:41;98512.88;;;10.49;71.31
19884;BME280;10104;50.732;10.174;2023-04-08T11:06:03;98515.13;;;10.60;71.94
19884;BME280;10104;50.732;10.174;2023-04-08T11:08:32;98506.66;;;10.65;71.75
19884;BME280;10104;50.732;10.174;2023-04-08T11:10:54;98513.75;;;10.95;71.56
19884;BME280;10104;50.732;10.174;2023-04-08T11:13:15;98511.81;;;11.12;68.62
19884;BME280;10104;50.732;10.174;2023-04-08T11:15:37;98506.47;;;11.20;68.82
19884;BME280;10104;50.732;10.174;2023-04-08T11:17:59;98505.53;;;11.35;68.21
19884;BME280;10104;50.732;10.174;2023-04-08T11:20:21;98504.84;;;11.56;67.71
19884;BME280;10104;50.732;10.174;2023-04-08T11:22:43;98510.84;;;11.73;65.26
19884;BME280;10104;50.732;10.174;2023-04-08T11:25:08;98511.56;;;11.67;66.94
19884;BME280;10104;50.732;10.174;2023-04-08T11:27:30;98499.94;;;11.91;66.30
19884;BME280;10104;50.732;10.174;2023-04-08T11:29:55;98508.19;;;12.25;64.91
19884;BME280;10104;50.732;10.174;2023-04-08T11:32:17;98505.16;;;12.57;63.04
19884;BME280;10104;50.732;10.174;2023-04-08T11:34:39;98501.84;;;12.55;61.71
19884;BME280;10104;50.732;10.174;2023-04-08T11:37:01;98507.09;;;12.85;61.52
19884;BME280;10104;50.732;10.174;2023-04-08T11:39:23;98504.91;;;12.74;61.86
19884;BME280;10104;50.732;10.174;2023-04-08T11:41:45;98510.25;;;12.74;63.13
19884;BME280;10104;50.732;10.174;2023-04-08T11:44:07;98506.09;;;12.86;61.80
19884;BME280;10104;50.732;10.174;2023-04-08T11:46:28;98507.13;;;13.06;62.12
19884;BME280;10104;50.732;10.174;2023-04-08T11:49:01;98490.28;;;12.99;61.91
19884;BME280;10104;50.732;10.174;2023-04-08T11:51:23;98500.09;;;12.98;60.29
19884;BME280;10104;50.732;10.174;2023-04-08T11:53:45;98489.97;;;13.09;61.89
19884;BME280;10104;50.732;10.174;2023-04-08T11:56:20;98492.44;;;12.89;60.15
19884;BME280;10104;50.732;10.174;2023-04-08T11:58:41;98492.03;;;12.71;62.90
19884;BME280;10104;50.732;10.174;2023-04-08T12:01:03;98491.91;;;13.15;61.55
19884;BME280;10104;50.732;10.174;2023-04-08T12:03:24;98488.59;;;13.55;61.36
19884;BME280;10104;50.732;10.174;2023-04-08T12:05:46;98486.25;;;13.67;60.18
19884;BME280;10104;50.732;10.174;2023-04-08T12:08:08;98492.69;;;13.79;58.93
19884;BME280;10104;50.732;10.174;2023-04-08T12:10:30;98480.28;;;13.93;58.79
19884;BME280;10104;50.732;10.174;2023-04-08T12:12:51;98478.81;;;13.90;57.48
19884;BME280;10104;50.732;10.174;2023-04-08T12:15:12;98483.47;;;14.09;57.12
19884;BME280;10104;50.732;10.174;2023-04-08T12:17:34;98493.66;;;13.99;57.66
19884;BME280;10104;50.732;10.174;2023-04-08T12:19:56;98501.69;;;14.40;56.74
19884;BME280;10104;50.732;10.174;2023-04-08T12:22:17;98499.38;;;14.03;57.53
19884;BME280;10104;50.732;10.174;2023-04-08T12:24:39;98505.72;;;14.30;57.13
19884;BME280;10104;50.732;10.174;2023-04-08T12:27:00;98512.56;;;14.45;56.46
19884;BME280;10104;50.732;10.174;2023-04-08T12:29:24;98521.25;;;14.26;56.15
19884;BME280;10104;50.732;10.174;2023-04-08T12:31:46;98511.72;;;14.38;55.00
19884;BME280;10104;50.732;10.174;2023-04-08T12:34:07;98511.50;;;14.05;56.09
19884;BME280;10104;50.732;10.174;2023-04-08T12:36:29;98518.13;;;14.91;55.09
19884;BME280;10104;50.732;10.174;2023-04-08T12:38:52;98510.22;;;15.37;53.57
19884;BME280;10104;50.732;10.174;2023-04-08T12:41:13;98513.69;;;15.31;53.10
19884;BME280;10104;50.732;10.174;2023-04-08T12:43:35;98505.06;;;15.16;53.10
19884;BME280;10104;50.732;10.174;2023-04-08T12:45:56;98510.16;;;14.98;53.23
19884;BME280;10104;50.732;10.174;2023-04-08T12:48:18;98509.75;;;14.53;54.06